sensor_id;sensor_type;location;lat;lon;timestamp;temperature;humidity
75457;SHT31;64036;48.266;14.192;2022-10-22T00:00:10;11.09;82.30
75457;SHT31;64036;48.266;14.192;2022-10-22T00:02:40;11.07;82.48
75457;SHT31;64036;48.266;14.192;2022-10-22T00:05:06;11.06;82.55
75457;SHT31;64036;48.266;14.192;2022-10-22T00:07:32;11.11;82.37
75457;SHT31;64036;48.266;14.192;2022-10-22T00:09:58;11.13;82.29
75457;SHT31;64036;48.266;14.192;2022-10-22T00:12:24;11.18;82.23
75457;SHT31;64036;48.266;14.192;2022-10-22T00:14:51;11.20;82.14
75457;SHT31;64036;48.266;14.192;2022-10-22T00:17:17;11.22;82.09
75457;SHT31;64036;48.266;14.192;2022-10-22T00:19:43;11.22;82.18
75457;SHT31;64036;48.266;14.192;2022-10-22T00:22:09;11.20;82.33
75457;SHT31;64036;48.266;14.192;2022-10-22T00:24:36;11.21;82.40
75457;SHT31;64036;48.266;14.192;2022-10-22T00:27:03;11.23;82.37
75457;SHT31;64036;48.266;14.192;2022-10-22T00:29:31;11.22;82.45
75457;SHT31;64036;48.266;14.192;2022-10-22T00:31:57;11.20;82.51
75457;SHT31;64036;48.266;14.192;2022-10-22T00:34:23;11.21;82.49
75457;SHT31;64036;48.266;14.192;2022-10-22T00:36:49;11.20;82.50
75457;SHT31;64036;48.266;14.192;2022-10-22T00:39:16;11.21;82.54
75457;SHT31;64036;48.266;14.192;2022-10-22T00:41:45;11.21;82.61
75457;SHT31;64036;48.266;14.192;2022-10-22T00:47:36;11.21;82.80
75457;SHT31;64036;48.266;14.192;2022-10-22T00:50:24;11.19;82.82
75457;SHT31;64036;48.266;14.192;2022-10-22T00:53:02;11.18;82.86
75457;SHT31;64036;48.266;14.192;2022-10-22T00:55:31;11.21;82.89
75457;SHT31;64036;48.266;14.192;2022-10-22T00:57:57;11.22;82.83
75457;SHT31;64036;48.266;14.192;2022-10-22T01:00:25;11.23;82.80
75457;SHT31;64036;48.266;14.192;2022-10-22T01:02:52;11.24;82.80
75457;SHT31;64036;48.266;14.192;2022-10-22T01:05:19;11.25;82.80
75457;SHT31;64036;48.266;14.192;2022-10-22T01:07:46;11.25;82.80
75457;SHT31;64036;48.266;14.192;2022-10-22T01:22:28;11.22;82.90
75457;SHT31;64036;48.266;14.192;2022-10-22T01:25:48;11.22;82.90
75457;SHT31;64036;48.266;14.192;2022-10-22T01:30:45;11.13;83.19
75457;SHT31;64036;48.266;14.192;2022-10-22T01:33:15;11.03;83.53
75457;SHT31;64036;48.266;14.192;2022-10-22T01:35:43;10.91;83.82
75457;SHT31;64036;48.266;14.192;2022-10-22T01:38:14;10.85;83.85
75457;SHT31;64036;48.266;14.192;2022-10-22T01:40:44;10.85;83.79
75457;SHT31;64036;48.266;14.192;2022-10-22T01:43:11;10.84;83.80
75457;SHT31;64036;48.266;14.192;2022-10-22T01:45:41;10.84;83.80
75457;SHT31;64036;48.266;14.192;2022-10-22T01:51:12;10.84;83.67
75457;SHT31;64036;48.266;14.192;2022-10-22T01:59:25;10.81;83.40
75457;SHT31;64036;48.266;14.192;2022-10-22T02:08:01;10.81;83.70
75457;SHT31;64036;48.266;14.192;2022-10-22T02:10:35;10.76;83.95
75457;SHT31;64036;48.266;14.192;2022-10-22T02:13:03;10.72;84.08
75457;SHT31;64036;48.266;14.192;2022-10-22T02:15:38;10.73;84.08
75457;SHT31;64036;48.266;14.192;2022-10-22T02:18:05;10.75;84.10
75457;SHT31;64036;48.266;14.192;2022-10-22T02:20:34;10.77;84.19
75457;SHT31;64036;48.266;14.192;2022-10-22T02:23:02;10.77;84.19
75457;SHT31;64036;48.266;14.192;2022-10-22T02:25:30;10.79;84.17
75457;SHT31;64036;48.266;14.192;2022-10-22T02:28:01;10.78;84.18
75457;SHT31;64036;48.266;14.192;2022-10-22T02:30:30;10.78;84.12
75457;SHT31;64036;48.266;14.192;2022-10-22T02:35:47;10.76;84.00
75457;SHT31;64036;48.266;14.192;2022-10-22T02:38:15;10.73;83.97
75457;SHT31;64036;48.266;14.192;2022-10-22T02:40:42;10.73;83.89
75457;SHT31;64036;48.266;14.192;2022-10-22T02:43:08;10.74;83.82
75457;SHT31;64036;48.266;14.192;2022-10-22T02:45:37;10.73;83.71
75457;SHT31;64036;48.266;14.192;2022-10-22T02:48:02;10.69;83.70
75457;SHT31;64036;48.266;14.192;2022-10-22T02:50:28;10.66;83.69
75457;SHT31;64036;48.266;14.192;2022-10-22T02:52:54;10.62;83.51
75457;SHT31;64036;48.266;14.192;2022-10-22T02:55:21;10.56;83.59
75457;SHT31;64036;48.266;14.192;2022-10-22T02:57:47;10.53;83.60
75457;SHT31;64036;48.266;14.192;2022-10-22T03:00:14;10.49;83.75
75457;SHT31;64036;48.266;14.192;2022-10-22T03:02:40;10.46;83.89
75457;SHT31;64036;48.266;14.192;2022-10-22T03:05:06;10.42;84.03
75457;SHT31;64036;48.266;14.192;2022-10-22T03:07:32;10.43;84.19
75457;SHT31;64036;48.266;14.192;2022-10-22T03:09:58;10.43;84.28
75457;SHT31;64036;48.266;14.192;2022-10-22T03:12:24;10.49;84.31
75457;SHT31;64036;48.266;14.192;2022-10-22T03:14:50;10.55;84.20
75457;SHT31;64036;48.266;14.192;2022-10-22T03:17:17;10.59;84.20
75457;SHT31;64036;48.266;14.192;2022-10-22T03:19:43;10.63;84.20
75457;SHT31;64036;48.266;14.192;2022-10-22T03:22:09;10.67;84.20
75457;SHT31;64036;48.266;14.192;2022-10-22T03:24:43;10.72;84.18
75457;SHT31;64036;48.266;14.192;2022-10-22T03:27:12;10.76;84.11
75457;SHT31;64036;48.266;14.192;2022-10-22T03:29:41;10.77;84.18
75457;SHT31;64036;48.266;14.192;2022-10-22T03:32:07;10.77;84.30
75457;SHT31;64036;48.266;14.192;2022-10-22T03:34:33;10.79;84.39
75457;SHT31;64036;48.266;14.192;2022-10-22T03:36:59;10.82;84.39
75457;SHT31;64036;48.266;14.192;2022-10-22T03:39:27;10.86;84.39
75457;SHT31;64036;48.266;14.192;2022-10-22T03:41:56;10.88;84.40
75457;SHT31;64036;48.266;14.192;2022-10-22T03:44:22;10.91;84.43
75457;SHT31;64036;48.266;14.192;2022-10-22T03:46:48;10.90;84.54
75457;SHT31;64036;48.266;14.192;2022-10-22T03:49:14;10.94;84.50
75457;SHT31;64036;48.266;14.192;2022-10-22T03:51:39;10.95;84.50
75457;SHT31;64036;48.266;14.192;2022-10-22T03:54:05;10.99;84.47
75457;SHT31;64036;48.266;14.192;2022-10-22T03:56:31;10.97;84.56
75457;SHT31;64036;48.266;14.192;2022-10-22T03:58:58;10.95;84.70
75457;SHT31;64036;48.266;14.192;2022-10-22T04:01:25;10.94;84.83
75457;SHT31;64036;48.266;14.192;2022-10-22T04:03:52;10.93;84.90
75457;SHT31;64036;48.266;14.192;2022-10-22T04:06:19;10.91;84.90
75457;SHT31;64036;48.266;14.192;2022-10-22T04:08:44;10.88;84.91
75457;SHT31;64036;48.266;14.192;2022-10-22T04:11:11;10.85;84.99
75457;SHT31;64036;48.266;14.192;2022-10-22T04:13:38;10.83;85.09
75457;SHT31;64036;48.266;14.192;2022-10-22T04:16:14;10.81;85.17
75457;SHT31;64036;48.266;14.192;2022-10-22T04:18:46;10.82;85.19
75457;SHT31;64036;48.266;14.192;2022-10-22T04:21:14;10.86;85.13
75457;SHT31;64036;48.266;14.192;2022-10-22T04:23:46;10.87;85.11
75457;SHT31;64036;48.266;14.192;2022-10-22T04:26:13;10.85;85.11
75457;SHT31;64036;48.266;14.192;2022-10-22T04:28:41;10.86;85.19
75457;SHT31;64036;48.266;14.192;2022-10-22T04:31:08;10.85;85.19
75457;SHT31;64036;48.266;14.192;2022-10-22T04:33:39;10.90;85.13
75457;SHT31;64036;48.266;14.192;2022-10-22T04:36:09;10.95;85.07
75457;SHT31;64036;48.266;14.192;2022-10-22T04:38:42;10.98;84.99
75457;SHT31;64036;48.266;14.192;2022-10-22T04:41:11;10.99;85.00
75457;SHT31;64036;48.266;14.192;2022-10-22T04:43:39;10.98;85.04
75457;SHT31;64036;48.266;14.192;2022-10-22T04:46:06;10.95;85.05
75457;SHT31;64036;48.266;14.192;2022-10-22T04:48:34;10.94;85.09
75457;SHT31;64036;48.266;14.192;2022-10-22T04:51:00;10.94;85.11
75457;SHT31;64036;48.266;14.192;2022-10-22T04:53:26;10.94;85.11
75457;SHT31;64036;48.266;14.192;2022-10-22T04:55:52;10.96;85.15
75457;SHT31;64036;48.266;14.192;2022-10-22T04:58:18;10.98;85.10
75457;SHT31;64036;48.266;14.192;2022-10-22T05:00:44;10.99;85.10
75457;SHT31;64036;48.266;14.192;2022-10-22T05:03:10;11.00;85.12
75457;SHT31;64036;48.266;14.192;2022-10-22T05:05:35;11.03;85.04
75457;SHT31;64036;48.266;14.192;2022-10-22T05:08:01;11.08;85.00
75457;SHT31;64036;48.266;14.192;2022-10-22T05:10:27;11.14;84.87
75457;SHT31;64036;48.266;14.192;2022-10-22T05:12:53;11.18;84.72
75457;SHT31;64036;48.266;14.192;2022-10-22T05:15:18;11.22;84.63
75457;SHT31;64036;48.266;14.192;2022-10-22T05:17:44;11.25;84.57
75457;SHT31;64036;48.266;14.192;2022-10-22T05:20:09;11.29;84.42
75457;SHT31;64036;48.266;14.192;2022-10-22T05:22:36;11.34;84.27
75457;SHT31;64036;48.266;14.192;2022-10-22T05:25:01;11.37;84.15
75457;SHT31;64036;48.266;14.192;2022-10-22T05:27:27;11.41;84.05
75457;SHT31;64036;48.266;14.192;2022-10-22T05:29:52;11.43;84.00
75457;SHT31;64036;48.266;14.192;2022-10-22T05:32:18;11.41;84.09
75457;SHT31;64036;48.266;14.192;2022-10-22T05:34:43;11.42;84.21
75457;SHT31;64036;48.266;14.192;2022-10-22T05:37:09;11.45;84.15
75457;SHT31;64036;48.266;14.192;2022-10-22T05:39:35;11.46;84.22
75457;SHT31;64036;48.266;14.192;2022-10-22T05:42:01;11.45;84.30
75457;SHT31;64036;48.266;14.192;2022-10-22T05:44:27;11.47;84.39
75457;SHT31;64036;48.266;14.192;2022-10-22T05:46:53;11.49;84.38
75457;SHT31;64036;48.266;14.192;2022-10-22T05:49:19;11.54;84.46
75457;SHT31;64036;48.266;14.192;2022-10-22T05:51:44;11.53;84.46
75457;SHT31;64036;48.266;14.192;2022-10-22T05:54:14;11.51;84.60
75457;SHT31;64036;48.266;14.192;2022-10-22T05:56:43;11.51;84.62
75457;SHT31;64036;48.266;14.192;2022-10-22T05:59:09;11.44;84.77
75457;SHT31;64036;48.266;14.192;2022-10-22T06:01:35;11.41;84.92
75457;SHT31;64036;48.266;14.192;2022-10-22T06:04:05;11.39;84.95
75457;SHT31;64036;48.266;14.192;2022-10-22T06:06:34;11.40;84.92
75457;SHT31;64036;48.266;14.192;2022-10-22T06:09:40;11.40;84.90
75457;SHT31;64036;48.266;14.192;2022-10-22T06:12:00;11.41;84.89
75457;SHT31;64036;48.266;14.192;2022-10-22T06:14:27;11.42;84.90
75457;SHT31;64036;48.266;14.192;2022-10-22T06:16:53;11.43;84.90
75457;SHT31;64036;48.266;14.192;2022-10-22T06:19:20;11.39;85.03
75457;SHT31;64036;48.266;14.192;2022-10-22T06:21:47;11.40;85.24
75457;SHT31;64036;48.266;14.192;2022-10-22T06:24:13;11.45;85.20
75457;SHT31;64036;48.266;14.192;2022-10-22T06:26:40;11.48;85.19
75457;SHT31;64036;48.266;14.192;2022-10-22T06:29:06;11.50;85.20
75457;SHT31;64036;48.266;14.192;2022-10-22T06:31:32;11.49;85.20
75457;SHT31;64036;48.266;14.192;2022-10-22T06:34:05;11.44;85.37
75457;SHT31;64036;48.266;14.192;2022-10-22T06:36:35;11.46;85.47
75457;SHT31;64036;48.266;14.192;2022-10-22T06:39:01;11.48;85.44
75457;SHT31;64036;48.266;14.192;2022-10-22T06:41:28;11.45;85.56
75457;SHT31;64036;48.266;14.192;2022-10-22T06:43:54;11.41;85.72
75457;SHT31;64036;48.266;14.192;2022-10-22T06:46:21;11.43;85.80
75457;SHT31;64036;48.266;14.192;2022-10-22T06:48:48;11.47;85.90
75457;SHT31;64036;48.266;14.192;2022-10-22T06:51:15;11.52;85.94
75457;SHT31;64036;48.266;14.192;2022-10-22T06:53:41;11.58;85.93
75457;SHT31;64036;48.266;14.192;2022-10-22T06:56:11;11.62;85.99
75457;SHT31;64036;48.266;14.192;2022-10-22T06:58:39;11.67;86.06
75457;SHT31;64036;48.266;14.192;2022-10-22T07:01:07;11.71;86.23
75457;SHT31;64036;48.266;14.192;2022-10-22T07:03:38;11.75;86.29
75457;SHT31;64036;48.266;14.192;2022-10-22T07:06:08;11.81;86.40
75457;SHT31;64036;48.266;14.192;2022-10-22T07:08:37;11.86;86.45
75457;SHT31;64036;48.266;14.192;2022-10-22T07:11:09;11.91;86.48
75457;SHT31;64036;48.266;14.192;2022-10-22T07:13:45;11.98;86.45
75457;SHT31;64036;48.266;14.192;2022-10-22T07:16:12;12.02;86.41
75457;SHT31;64036;48.266;14.192;2022-10-22T07:18:39;12.07;86.31
75457;SHT31;64036;48.266;14.192;2022-10-22T07:21:07;12.11;86.30
75457;SHT31;64036;48.266;14.192;2022-10-22T07:23:34;12.15;86.37
75457;SHT31;64036;48.266;14.192;2022-10-22T07:26:00;12.20;86.30
75457;SHT31;64036;48.266;14.192;2022-10-22T07:28:26;12.24;86.26
75457;SHT31;64036;48.266;14.192;2022-10-22T07:30:53;12.30;86.20
75457;SHT31;64036;48.266;14.192;2022-10-22T07:33:19;12.36;86.09
75457;SHT31;64036;48.266;14.192;2022-10-22T07:35:44;12.42;86.02
75457;SHT31;64036;48.266;14.192;2022-10-22T07:38:10;12.49;85.90
75457;SHT31;64036;48.266;14.192;2022-10-22T07:40:36;12.54;85.92
75457;SHT31;64036;48.266;14.192;2022-10-22T07:43:02;12.56;85.91
75457;SHT31;64036;48.266;14.192;2022-10-22T07:45:28;12.60;85.82
75457;SHT31;64036;48.266;14.192;2022-10-22T07:47:54;12.64;85.79
75457;SHT31;64036;48.266;14.192;2022-10-22T07:50:19;12.67;85.71
75457;SHT31;64036;48.266;14.192;2022-10-22T07:52:45;12.72;85.63
75457;SHT31;64036;48.266;14.192;2022-10-22T07:55:11;12.75;85.56
75457;SHT31;64036;48.266;14.192;2022-10-22T07:57:37;12.79;85.53
75457;SHT31;64036;48.266;14.192;2022-10-22T08:00:06;12.82;85.45
75457;SHT31;64036;48.266;14.192;2022-10-22T08:02:33;12.85;85.44
75457;SHT31;64036;48.266;14.192;2022-10-22T08:04:59;12.90;85.50
75457;SHT31;64036;48.266;14.192;2022-10-22T08:07:24;12.95;85.52
75457;SHT31;64036;48.266;14.192;2022-10-22T08:09:50;13.04;85.40
75457;SHT31;64036;48.266;14.192;2022-10-22T08:12:16;13.08;85.35
75457;SHT31;64036;48.266;14.192;2022-10-22T08:14:41;13.14;85.40
75457;SHT31;64036;48.266;14.192;2022-10-22T08:17:07;13.21;85.40
75457;SHT31;64036;48.266;14.192;2022-10-22T08:19:33;13.26;85.40
75457;SHT31;64036;48.266;14.192;2022-10-22T08:21:59;13.30;85.41
75457;SHT31;64036;48.266;14.192;2022-10-22T08:24:26;13.33;85.40
75457;SHT31;64036;48.266;14.192;2022-10-22T08:26:52;13.37;85.40
75457;SHT31;64036;48.266;14.192;2022-10-22T08:29:20;13.39;85.40
75457;SHT31;64036;48.266;14.192;2022-10-22T08:31:47;13.43;85.40
75457;SHT31;64036;48.266;14.192;2022-10-22T08:34:14;13.51;85.49
75457;SHT31;64036;48.266;14.192;2022-10-22T08:36:40;13.57;85.39
75457;SHT31;64036;48.266;14.192;2022-10-22T08:39:06;13.64;85.34
75457;SHT31;64036;48.266;14.192;2022-10-22T08:41:33;13.71;85.18
75457;SHT31;64036;48.266;14.192;2022-10-22T08:44:34;13.76;84.99
75457;SHT31;64036;48.266;14.192;2022-10-22T08:49:59;13.82;85.06
75457;SHT31;64036;48.266;14.192;2022-10-22T08:52:25;13.77;85.08
75457;SHT31;64036;48.266;14.192;2022-10-22T09:00:27;13.64;85.23
75457;SHT31;64036;48.266;14.192;2022-10-22T09:03:06;13.64;85.27
75457;SHT31;64036;48.266;14.192;2022-10-22T09:08:27;13.72;85.22
75457;SHT31;64036;48.266;14.192;2022-10-22T09:11:04;13.76;85.15
75457;SHT31;64036;48.266;14.192;2022-10-22T09:13:39;13.81;85.32
75457;SHT31;64036;48.266;14.192;2022-10-22T09:16:18;13.84;85.37
75457;SHT31;64036;48.266;14.192;2022-10-22T09:22:05;13.91;85.42
75457;SHT31;64036;48.266;14.192;2022-10-22T09:24:47;13.95;85.50
75457;SHT31;64036;48.266;14.192;2022-10-22T09:27:19;14.00;85.57
75457;SHT31;64036;48.266;14.192;2022-10-22T09:29:51;14.06;85.50
75457;SHT31;64036;48.266;14.192;2022-10-22T09:32:17;14.09;85.35
75457;SHT31;64036;48.266;14.192;2022-10-22T09:34:44;14.11;85.30
75457;SHT31;64036;48.266;14.192;2022-10-22T09:37:12;14.13;85.31
75457;SHT31;64036;48.266;14.192;2022-10-22T09:39:44;14.14;85.31
75457;SHT31;64036;48.266;14.192;2022-10-22T09:42:16;14.16;85.31
75457;SHT31;64036;48.266;14.192;2022-10-22T09:44:50;14.15;85.25
75457;SHT31;64036;48.266;14.192;2022-10-22T09:47:27;14.13;85.12
75457;SHT31;64036;48.266;14.192;2022-10-22T09:53:18;14.01;84.95
75457;SHT31;64036;48.266;14.192;2022-10-22T09:55:51;13.97;84.97
75457;SHT31;64036;48.266;14.192;2022-10-22T09:58:19;13.91;84.94
75457;SHT31;64036;48.266;14.192;2022-10-22T10:00:47;13.89;84.92
75457;SHT31;64036;48.266;14.192;2022-10-22T10:03:21;13.84;84.91
75457;SHT31;64036;48.266;14.192;2022-10-22T10:05:52;13.84;85.00
75457;SHT31;64036;48.266;14.192;2022-10-22T10:08:21;13.87;84.97
75457;SHT31;64036;48.266;14.192;2022-10-22T10:11:10;13.91;85.03
75457;SHT31;64036;48.266;14.192;2022-10-22T10:19:20;14.05;84.98
75457;SHT31;64036;48.266;14.192;2022-10-22T10:36:24;14.36;84.99
75457;SHT31;64036;48.266;14.192;2022-10-22T10:39:03;14.41;84.98
75457;SHT31;64036;48.266;14.192;2022-10-22T10:41:54;14.47;84.83
75457;SHT31;64036;48.266;14.192;2022-10-22T10:53:36;14.59;84.70
75457;SHT31;64036;48.266;14.192;2022-10-22T10:59:11;14.61;84.63
75457;SHT31;64036;48.266;14.192;2022-10-22T11:07:19;14.62;84.60
75457;SHT31;64036;48.266;14.192;2022-10-22T11:10:18;14.61;84.62
75457;SHT31;64036;48.266;14.192;2022-10-22T11:13:01;14.61;84.72
75457;SHT31;64036;48.266;14.192;2022-10-22T11:15:38;14.63;84.70
75457;SHT31;64036;48.266;14.192;2022-10-22T11:18:09;14.61;84.70
75457;SHT31;64036;48.266;14.192;2022-10-22T11:20:52;14.62;84.73
75457;SHT31;64036;48.266;14.192;2022-10-22T11:23:31;14.64;84.80
75457;SHT31;64036;48.266;14.192;2022-10-22T11:26:26;14.68;84.83
75457;SHT31;64036;48.266;14.192;2022-10-22T11:29:03;14.71;84.81
75457;SHT31;64036;48.266;14.192;2022-10-22T11:31:38;14.77;84.87
75457;SHT31;64036;48.266;14.192;2022-10-22T11:34:21;14.83;84.84
75457;SHT31;64036;48.266;14.192;2022-10-22T11:36:52;14.88;84.88
75457;SHT31;64036;48.266;14.192;2022-10-22T11:39:29;14.91;84.87
75457;SHT31;64036;48.266;14.192;2022-10-22T11:42:02;14.94;84.85
75457;SHT31;64036;48.266;14.192;2022-10-22T11:50:22;15.04;84.88
75457;SHT31;64036;48.266;14.192;2022-10-22T11:55:40;15.07;84.78
75457;SHT31;64036;48.266;14.192;2022-10-22T12:06:05;15.24;84.70
75457;SHT31;64036;48.266;14.192;2022-10-22T12:14:19;15.43;84.48
75457;SHT31;64036;48.266;14.192;2022-10-22T12:19:37;15.57;84.27
75457;SHT31;64036;48.266;14.192;2022-10-22T12:24:35;15.69;84.13
75457;SHT31;64036;48.266;14.192;2022-10-22T12:27:21;15.76;84.00
75457;SHT31;64036;48.266;14.192;2022-10-22T12:29:56;15.83;83.83
75457;SHT31;64036;48.266;14.192;2022-10-22T12:32:37;15.92;83.84
75457;SHT31;64036;48.266;14.192;2022-10-22T12:35:10;16.03;83.64
75457;SHT31;64036;48.266;14.192;2022-10-22T12:37:41;16.12;83.36
75457;SHT31;64036;48.266;14.192;2022-10-22T12:42:51;16.21;82.89
75457;SHT31;64036;48.266;14.192;2022-10-22T12:45:20;16.24;82.56
75457;SHT31;64036;48.266;14.192;2022-10-22T12:47:47;16.28;82.45
75457;SHT31;64036;48.266;14.192;2022-10-22T12:50:17;16.35;82.19
75457;SHT31;64036;48.266;14.192;2022-10-22T12:52:46;16.42;82.18
75457;SHT31;64036;48.266;14.192;2022-10-22T12:55:16;16.49;82.02
75457;SHT31;64036;48.266;14.192;2022-10-22T12:57:47;16.53;81.56
75457;SHT31;64036;48.266;14.192;2022-10-22T13:02:45;16.52;81.07
75457;SHT31;64036;48.266;14.192;2022-10-22T13:05:31;16.53;80.99
75457;SHT31;64036;48.266;14.192;2022-10-22T13:08:04;16.54;80.98
75457;SHT31;64036;48.266;14.192;2022-10-22T13:10:36;16.53;80.88
75457;SHT31;64036;48.266;14.192;2022-10-22T13:13:06;16.54;80.82
75457;SHT31;64036;48.266;14.192;2022-10-22T13:18:16;16.60;80.69
75457;SHT31;64036;48.266;14.192;2022-10-22T13:20:52;16.66;80.75
75457;SHT31;64036;48.266;14.192;2022-10-22T13:23:28;16.72;80.54
75457;SHT31;64036;48.266;14.192;2022-10-22T13:28:41;16.71;80.22
75457;SHT31;64036;48.266;14.192;2022-10-22T13:31:17;16.71;80.24
75457;SHT31;64036;48.266;14.192;2022-10-22T13:33:50;16.72;80.29
75457;SHT31;64036;48.266;14.192;2022-10-22T13:36:20;16.75;80.38
75457;SHT31;64036;48.266;14.192;2022-10-22T13:38:46;16.77;80.26
75457;SHT31;64036;48.266;14.192;2022-10-22T13:43:46;16.85;80.32
75457;SHT31;64036;48.266;14.192;2022-10-22T13:46:12;16.88;80.33
75457;SHT31;64036;48.266;14.192;2022-10-22T13:48:38;16.90;80.29
75457;SHT31;64036;48.266;14.192;2022-10-22T13:51:38;16.95;80.21
75457;SHT31;64036;48.266;14.192;2022-10-22T13:53:59;17.00;80.23
75457;SHT31;64036;48.266;14.192;2022-10-22T13:56:25;17.03;80.14
75457;SHT31;64036;48.266;14.192;2022-10-22T13:58:51;17.10;79.91
75457;SHT31;64036;48.266;14.192;2022-10-22T14:01:20;17.09;79.96
75457;SHT31;64036;48.266;14.192;2022-10-22T14:03:49;17.10;79.89
75457;SHT31;64036;48.266;14.192;2022-10-22T14:06:19;17.06;79.86
75457;SHT31;64036;48.266;14.192;2022-10-22T14:08:56;16.99;79.77
75457;SHT31;64036;48.266;14.192;2022-10-22T14:11:26;16.92;79.85
75457;SHT31;64036;48.266;14.192;2022-10-22T14:13:53;16.89;79.88
75457;SHT31;64036;48.266;14.192;2022-10-22T14:16:20;16.87;79.75
75457;SHT31;64036;48.266;14.192;2022-10-22T14:18:50;16.81;79.61
75457;SHT31;64036;48.266;14.192;2022-10-22T14:21:19;16.77;79.61
75457;SHT31;64036;48.266;14.192;2022-10-22T14:23:45;16.75;79.74
75457;SHT31;64036;48.266;14.192;2022-10-22T14:26:23;16.73;79.73
75457;SHT31;64036;48.266;14.192;2022-10-22T14:28:57;16.67;79.73
75457;SHT31;64036;48.266;14.192;2022-10-22T14:31:25;16.64;79.76
75457;SHT31;64036;48.266;14.192;2022-10-22T14:33:51;16.61;79.80
75457;SHT31;64036;48.266;14.192;2022-10-22T14:36:18;16.59;79.83
75457;SHT31;64036;48.266;14.192;2022-10-22T14:38:44;16.58;79.82
75457;SHT31;64036;48.266;14.192;2022-10-22T14:41:22;16.58;79.65
75457;SHT31;64036;48.266;14.192;2022-10-22T14:43:50;16.59;79.67
75457;SHT31;64036;48.266;14.192;2022-10-22T14:46:16;16.58;79.75
75457;SHT31;64036;48.266;14.192;2022-10-22T14:48:43;16.56;79.72
75457;SHT31;64036;48.266;14.192;2022-10-22T14:51:13;16.52;79.48
75457;SHT31;64036;48.266;14.192;2022-10-22T14:53:41;16.46;79.44
75457;SHT31;64036;48.266;14.192;2022-10-22T14:56:11;16.45;79.59
75457;SHT31;64036;48.266;14.192;2022-10-22T14:58:38;16.47;79.61
75457;SHT31;64036;48.266;14.192;2022-10-22T15:01:05;16.41;79.61
75457;SHT31;64036;48.266;14.192;2022-10-22T15:03:31;16.31;79.61
75457;SHT31;64036;48.266;14.192;2022-10-22T15:05:57;16.23;79.69
75457;SHT31;64036;48.266;14.192;2022-10-22T15:08:23;16.18;79.85
75457;SHT31;64036;48.266;14.192;2022-10-22T15:11:10;16.15;80.01
75457;SHT31;64036;48.266;14.192;2022-10-22T15:13:36;16.13;79.95
75457;SHT31;64036;48.266;14.192;2022-10-22T15:16:07;16.08;79.83
75457;SHT31;64036;48.266;14.192;2022-10-22T15:18:34;15.98;79.85
75457;SHT31;64036;48.266;14.192;2022-10-22T15:21:02;15.90;79.97
75457;SHT31;64036;48.266;14.192;2022-10-22T15:23:31;15.84;80.00
75457;SHT31;64036;48.266;14.192;2022-10-22T15:25:57;15.78;80.13
75457;SHT31;64036;48.266;14.192;2022-10-22T15:28:23;15.71;80.24
75457;SHT31;64036;48.266;14.192;2022-10-22T15:30:53;15.66;80.43
75457;SHT31;64036;48.266;14.192;2022-10-22T15:33:21;15.63;80.46
75457;SHT31;64036;48.266;14.192;2022-10-22T15:35:47;15.58;80.47
75457;SHT31;64036;48.266;14.192;2022-10-22T15:38:13;15.52;80.37
75457;SHT31;64036;48.266;14.192;2022-10-22T15:40:39;15.42;80.40
75457;SHT31;64036;48.266;14.192;2022-10-22T15:43:04;15.32;80.49
75457;SHT31;64036;48.266;14.192;2022-10-22T15:45:30;15.25;80.49
75457;SHT31;64036;48.266;14.192;2022-10-22T15:47:55;15.14;80.61
75457;SHT31;64036;48.266;14.192;2022-10-22T15:50:21;15.04;80.72
75457;SHT31;64036;48.266;14.192;2022-10-22T15:52:47;14.95;81.00
75457;SHT31;64036;48.266;14.192;2022-10-22T15:55:12;14.86;81.30
75457;SHT31;64036;48.266;14.192;2022-10-22T15:57:38;14.77;81.62
75457;SHT31;64036;48.266;14.192;2022-10-22T16:00:04;14.72;81.84
75457;SHT31;64036;48.266;14.192;2022-10-22T16:02:31;14.65;82.05
75457;SHT31;64036;48.266;14.192;2022-10-22T16:04:57;14.60;82.20
75457;SHT31;64036;48.266;14.192;2022-10-22T16:07:23;14.54;82.36
75457;SHT31;64036;48.266;14.192;2022-10-22T16:09:53;14.46;82.42
75457;SHT31;64036;48.266;14.192;2022-10-22T16:12:20;14.35;82.61
75457;SHT31;64036;48.266;14.192;2022-10-22T16:14:48;14.22;82.84
75457;SHT31;64036;48.266;14.192;2022-10-22T16:17:15;14.12;83.17
75457;SHT31;64036;48.266;14.192;2022-10-22T16:19:40;14.06;83.42
75457;SHT31;64036;48.266;14.192;2022-10-22T16:22:06;14.02;83.58
75457;SHT31;64036;48.266;14.192;2022-10-22T16:24:35;13.99;83.66
75457;SHT31;64036;48.266;14.192;2022-10-22T16:27:06;13.96;83.71
75457;SHT31;64036;48.266;14.192;2022-10-22T16:29:32;13.94;83.69
75457;SHT31;64036;48.266;14.192;2022-10-22T16:31:58;13.90;83.83
75457;SHT31;64036;48.266;14.192;2022-10-22T16:34:27;13.86;83.97
75457;SHT31;64036;48.266;14.192;2022-10-22T16:36:53;13.82;84.07
75457;SHT31;64036;48.266;14.192;2022-10-22T16:39:20;13.76;84.11
75457;SHT31;64036;48.266;14.192;2022-10-22T16:41:47;13.74;84.20
75457;SHT31;64036;48.266;14.192;2022-10-22T16:44:13;13.72;84.20
75457;SHT31;64036;48.266;14.192;2022-10-22T16:46:38;13.68;84.25
75457;SHT31;64036;48.266;14.192;2022-10-22T16:49:04;13.63;84.37
75457;SHT31;64036;48.266;14.192;2022-10-22T16:51:31;13.58;84.42
75457;SHT31;64036;48.266;14.192;2022-10-22T16:53:57;13.51;84.50
75457;SHT31;64036;48.266;14.192;2022-10-22T16:56:23;13.48;84.57
75457;SHT31;64036;48.266;14.192;2022-10-22T16:58:54;13.43;84.66
75457;SHT31;64036;48.266;14.192;2022-10-22T17:01:22;13.37;84.65
75457;SHT31;64036;48.266;14.192;2022-10-22T17:03:50;13.33;84.78
75457;SHT31;64036;48.266;14.192;2022-10-22T17:06:18;13.29;84.95
75457;SHT31;64036;48.266;14.192;2022-10-22T17:08:45;13.24;85.09
75457;SHT31;64036;48.266;14.192;2022-10-22T17:11:11;13.19;85.18
75457;SHT31;64036;48.266;14.192;2022-10-22T17:13:42;13.16;85.33
75457;SHT31;64036;48.266;14.192;2022-10-22T17:16:17;13.15;85.41
75457;SHT31;64036;48.266;14.192;2022-10-22T17:18:45;13.10;85.48
75457;SHT31;64036;48.266;14.192;2022-10-22T17:21:12;13.07;85.48
75457;SHT31;64036;48.266;14.192;2022-10-22T17:23:39;13.03;85.38
75457;SHT31;64036;48.266;14.192;2022-10-22T17:26:07;13.02;85.52
75457;SHT31;64036;48.266;14.192;2022-10-22T17:28:41;12.98;85.63
75457;SHT31;64036;48.266;14.192;2022-10-22T17:31:09;12.94;85.82
75457;SHT31;64036;48.266;14.192;2022-10-22T17:33:43;12.93;85.91
75457;SHT31;64036;48.266;14.192;2022-10-22T17:36:09;12.89;86.00
75457;SHT31;64036;48.266;14.192;2022-10-22T17:38:37;12.84;85.95